Terminal Aerodrome Forecast
Issued by NWS Flagstaff, AZ

Home | Current Version | Previous Version | Text Only | Print | Product List | Glossary On
Versions: 1 2 3 4 5 6 7 8 9 10 11 12 13 14 15 16 17 18 19
000
FTUS45 KFGZ 251700
TAFFLG
TAF
KFLG 251729Z 2518/2618 22012G20KT P6SM VCSH SCT008 BKN012 OVC020
      TEMPO 2518/2520 5SM -SHRA BKN008
     FM252000 23014G28KT P6SM VCSH SCT008 BKN012 OVC020
      TEMPO 2520/2523 3SM -SHRA BR BKN006
     FM252300 23011G19KT 3SM -RA BR SCT005 OVC008
      TEMPO 2523/2603 1SM -SHRASN BR BKN005
     FM260300 24008G15KT 2SM -SHRASN BR OVC005
      TEMPO 2605/2609 1SM -SHSN BR VV003=

USA.gov is the U.S. government's official web portal to all federal, state and local government web resources and services.